Time;durP1;ratioP1;P1;durP2;ratioP2;P2;SDS_P1;SDS_P2;PMS_P1;PMS_P2;Temp;Humidity;BMP_temperature;BMP_pressure;BME280_temperature;BME280_humidity;BME280_pressure;Samples;Min_cycle;Max_cycle;Signal;HPM_P1;HPM_P2
2021/10/02 00:31:37;;;;;;;6.67;4.60;;;;;;;;;;5078711;28;20449;-69
2021/10/02 00:34:26;;;;;;;5.90;4.80;;;10.90;1.00;;;;;;5085586;28;20448;-67
2021/10/02 00:37:06;;;;;;;10.13;4.47;;;13.70;99.90;;;;;;5071852;28;20465;-67
2021/10/02 00:45:00;;;;;;;5.37;4.23;;;13.40;99.90;;;;;;5045566;28;20487;-66
2021/10/02 00:47:28;;;;;;;6.67;5.00;;;13.40;99.90;;;;;;5089899;28;20536;-67
2021/10/02 00:49:57;;;;;;;5.70;4.23;;;13.30;99.90;;;;;;5076107;28;20449;-67
2021/10/02 00:52:24;;;;;;;6.57;4.17;;;13.30;99.90;;;;;;5069785;28;20942;-66
2021/10/02 00:54:52;;;;;;;6.60;4.63;;;13.40;99.90;;;;;;5070441;28;20460;-67
2021/10/02 00:57:21;;;;;;;5.80;4.97;;;13.30;99.90;;;;;;5069285;28;20452;-66
2021/10/02 00:59:48;;;;;;;5.43;4.23;;;13.30;99.90;;;;;;5087840;28;20445;-66
2021/10/02 01:02:21;;;;;;;4.57;4.17;;;13.20;99.90;;;;;;5088281;28;20471;-67
2021/10/02 01:05:18;;;;;;;5.77;4.30;;;13.20;99.90;;;;;;5089676;28;20532;-67
2021/10/02 01:07:54;;;;;;;5.83;4.20;;;13.30;99.90;;;;;;5077396;28;20577;-67
2021/10/02 01:10:30;;;;;;;9.70;4.60;;;13.40;99.90;;;;;;5073716;28;20523;-67
2021/10/02 01:13:07;;;;;;;5.60;3.90;;;13.40;99.90;;;;;;5090178;28;20950;-67
2021/10/02 01:15:43;;;;;;;7.20;4.27;;;13.50;99.90;;;;;;5068996;28;20933;-67
2021/10/02 01:18:15;;;;;;;6.37;4.10;;;13.60;99.90;;;;;;5084691;28;20476;-67
2021/10/02 01:20:55;;;;;;;6.37;4.67;;;13.50;99.90;;;;;;5072495;28;20813;-67
2021/10/02 01:23:37;;;;;;;4.60;3.80;;;13.60;99.90;;;;;;5083767;28;20461;-68
2021/10/02 01:26:17;;;;;;;4.63;4.10;;;13.70;99.90;;;;;;5071791;28;20481;-67
2021/10/02 01:28:48;;;;;;;6.40;4.77;;;13.70;99.90;;;;;;5073720;28;20528;-67
2021/10/02 01:31:21;;;;;;;4.57;4.10;;;13.80;99.90;;;;;;5075303;28;20450;-67
2021/10/02 01:33:56;;;;;;;5.67;4.20;;;13.70;99.90;;;;;;5076533;28;20445;-67
2021/10/02 01:36:34;;;;;;;5.97;4.23;;;13.70;99.90;;;;;;5072558;28;20522;-68
2021/10/02 01:47:25;;;;;;;4.40;3.67;;;13.50;99.90;;;;;;5072833;28;20436;-67
2021/10/02 01:49:54;;;;;;;4.67;4.00;;;13.40;99.90;;;;;;5073349;28;20453;-68
2021/10/02 01:52:24;;;;;;;5.17;4.27;;;13.40;99.90;;;;;;5073069;28;20573;-67
2021/10/02 01:54:54;;;;;;;5.30;3.90;;;13.40;99.90;;;;;;5084064;28;20559;-67
2021/10/02 01:57:21;;;;;;;5.57;4.80;;;;;;;;;;5092640;28;20448;-67
2021/10/02 01:59:51;;;;;;;5.97;4.17;;;;;;;;;;5086316;28;20892;-67
2021/10/02 02:02:19;;;;;;;6.33;4.20;;;;;;;;;;5085703;28;20457;-68
2021/10/02 02:04:47;;;;;;;5.97;4.23;;;;;;;;;;5089359;28;20524;-67
2021/10/02 02:07:15;;;;;;;5.73;3.67;;;;;;;;;;5090703;28;20983;-68
2021/10/02 02:09:42;;;;;;;7.27;4.00;;;;;;;;;;5085634;28;20904;-67
2021/10/02 02:12:12;;;;;;;6.30;4.80;;;;;;;;;;5091193;28;20462;-67
2021/10/02 02:14:41;;;;;;;5.40;4.90;;;;;;;;;;5076336;28;20449;-67
2021/10/02 02:17:11;;;;;;;4.90;4.40;;;;;;;;;;5092645;28;20445;-67
2021/10/02 02:19:38;;;;;;;11.43;4.77;;;;;;;;;;5090425;28;20455;-67
2021/10/02 02:22:06;;;;;;;5.60;4.60;;;;;;;;;;5084746;28;20531;-67
2021/10/02 02:24:34;;;;;;;6.83;4.67;;;;;;;;;;5092289;28;20764;-70
2021/10/02 02:27:03;;;;;;;8.43;4.27;;;;;;;;;;5089113;28;20485;-67
2021/10/02 02:29:31;;;;;;;5.77;4.57;;;;;;;;;;5082949;28;20540;-67
2021/10/02 02:31:58;;;;;;;5.40;4.50;;;;;;;;;;5079295;28;20457;-67
2021/10/02 02:34:28;;;;;;;5.80;4.40;;;;;;;;;;5081573;28;20448;-68
2021/10/02 02:36:55;;;;;;;5.40;3.93;;;;;;;;;;5077999;28;20460;-67
2021/10/02 02:39:22;;;;;;;6.03;4.37;;;;;;;;;;5077580;28;20543;-67
2021/10/02 02:41:49;;;;;;;6.67;4.67;;;;;;;;;;5072562;28;20441;-67
2021/10/02 02:44:17;;;;;;;8.40;4.30;;;;;;;;;;5090675;28;20483;-67
2021/10/02 02:46:44;;;;;;;4.40;4.00;;;;;;;;;;5088701;28;20477;-67
2021/10/02 02:49:13;;;;;;;5.27;4.13;;;;;;;;;;5092629;28;20456;-67
2021/10/02 02:51:46;;;;;;;7.30;4.43;;;;;;;;;;5085680;28;20453;-67
2021/10/02 02:54:16;;;;;;;5.20;4.50;;;;;;;;;;5071633;28;20433;-67
2021/10/02 02:56:44;;;;;;;5.50;4.30;;;;;;;;;;5078822;28;20456;-67
2021/10/02 02:59:17;;;;;;;6.33;4.43;;;;;;;;;;5091738;28;20467;-67
2021/10/02 03:01:45;;;;;;;7.37;5.77;;;;;;;;;;5079159;28;20449;-67
2021/10/02 03:04:14;;;;;;;5.03;4.53;;;;;;;;;;5087168;28;20455;-68
2021/10/02 03:06:44;;;;;;;7.77;4.70;;;;;;;;;;5090503;28;20483;-67
2021/10/02 03:09:12;;;;;;;6.57;4.67;;;;;;;;;;5073543;28;20599;-67
2021/10/02 03:11:39;;;;;;;4.80;4.23;;;;;;;;;;5071664;28;20472;-66
2021/10/02 03:14:07;;;;;;;6.00;4.80;;;;;;;;;;5084969;28;20460;-67
2021/10/02 03:16:35;;;;;;;6.30;4.67;;;;;;;;;;5074960;28;21040;-68
2021/10/02 03:19:03;;;;;;;6.73;4.60;;;;;;;;;;5087708;28;20446;-68
2021/10/02 03:21:30;;;;;;;6.77;4.77;;;;;;;;;;5071041;28;20533;-67
2021/10/02 03:24:02;;;;;;;5.60;4.30;;;;;;;;;;5087469;28;20941;-67
2021/10/02 03:26:30;;;;;;;6.00;4.37;;;;;;;;;;5090806;28;20892;-67
2021/10/02 03:28:58;;;;;;;6.13;4.37;;;;;;;;;;5085350;28;20899;-67
2021/10/02 03:31:25;;;;;;;5.33;4.23;;;;;;;;;;5070660;28;20457;-67
2021/10/02 03:33:53;;;;;;;6.27;4.37;;;;;;;;;;5089942;28;20463;-70
2021/10/02 03:36:20;;;;;;;9.33;4.20;;;;;;;;;;5090513;28;20464;-67
2021/10/02 03:38:48;;;;;;;8.07;3.93;;;;;;;;;;5077333;28;20440;-67
2021/10/02 03:41:16;;;;;;;5.30;3.77;;;;;;;;;;5077644;28;20463;-67
2021/10/02 03:43:43;;;;;;;5.93;4.43;;;;;;;;;;5078960;28;20456;-67
2021/10/02 03:46:10;;;;;;;5.80;4.67;;;;;;;;;;5070387;28;20479;-68
2021/10/02 03:48:38;;;;;;;4.77;4.03;;;;;;;;;;5070429;28;20458;-67
2021/10/02 03:51:05;;;;;;;6.00;4.30;;;;;;;;;;5071069;28;20972;-68
2021/10/02 03:53:32;;;;;;;6.53;4.90;;;;;;;;;;5070516;28;20441;-68
2021/10/02 03:56:00;;;;;;;7.37;4.80;;;;;;;;;;5073270;28;20459;-67
2021/10/02 03:58:29;;;;;;;7.30;5.00;;;;;;;;;;5082557;28;20457;-67
2021/10/02 04:00:56;;;;;;;5.20;4.30;;;;;;;;;;5081728;28;20959;-68
2021/10/02 04:03:23;;;;;;;4.97;4.30;;;;;;;;;;5089561;28;20531;-67
2021/10/02 04:05:50;;;;;;;4.80;4.30;;;;;;;;;;5087455;28;20445;-67
2021/10/02 04:08:17;;;;;;;4.70;4.27;;;;;;;;;;5075507;28;20461;-67
2021/10/02 04:10:44;;;;;;;7.80;4.43;;;;;;;;;;5079044;28;20485;-67
2021/10/02 04:13:12;;;;;;;7.33;4.77;;;;;;;;;;5070923;28;20452;-67
2021/10/02 04:15:40;;;;;;;4.57;3.77;;;;;;;;;;5070431;28;20452;-67
2021/10/02 04:18:07;;;;;;;5.10;4.57;;;;;;;;;;5079977;28;20445;-67
2021/10/02 04:20:35;;;;;;;5.07;4.17;;;;;;;;;;5085380;28;20463;-67
2021/10/02 04:23:02;;;;;;;5.80;4.50;;;;;;;;;;5074681;28;20446;-68
2021/10/02 04:25:29;;;;;;;7.50;4.97;;;;;;;;;;5069817;28;20445;-67
2021/10/02 04:27:56;;;;;;;5.87;4.30;;;;;;;;;;5081922;28;20476;-67
2021/10/02 04:30:23;;;;;;;5.97;5.07;;;;;;;;;;5075404;28;20449;-68
2021/10/02 04:32:52;;;;;;;7.23;4.60;;;;;;;;;;5075398;28;20540;-67
2021/10/02 04:35:19;;;;;;;6.80;4.63;;;;;;;;;;5079066;28;20805;-67
2021/10/02 04:37:47;;;;;;;5.27;3.97;;;;;;;;;;5071547;28;20446;-67
2021/10/02 04:40:14;;;;;;;4.83;4.33;;;;;;;;;;5086850;28;20456;-68
2021/10/02 04:42:42;;;;;;;6.37;4.70;;;;;;;;;;5078308;28;20456;-68
2021/10/02 04:45:09;;;;;;;5.63;4.50;;;;;;;;;;5079566;28;20527;-67
2021/10/02 04:47:36;;;;;;;5.93;5.20;;;;;;;;;;5069878;28;20505;-68
2021/10/02 04:50:06;;;;;;;5.37;4.40;;;;;;;;;;5070402;28;20456;-67
2021/10/02 04:52:33;;;;;;;5.50;4.97;;;;;;;;;;5076945;28;20731;-71
2021/10/02 04:55:00;;;;;;;7.37;5.00;;;;;;;;;;5089867;28;20448;-68
2021/10/02 04:57:27;;;;;;;4.60;4.20;;;;;;;;;;5089595;28;20952;-67
2021/10/02 04:59:54;;;;;;;7.97;5.73;;;;;;;;;;5087207;28;20486;-68
2021/10/02 05:02:21;;;;;;;6.20;4.30;;;;;;;;;;5093002;28;20972;-67
2021/10/02 05:04:48;;;;;;;6.20;5.20;;;;;;;;;;5077593;28;20441;-67
2021/10/02 05:07:17;;;;;;;7.93;5.37;;;;;;;;;;5091026;28;20824;-67
2021/10/02 05:09:44;;;;;;;9.57;5.67;;;;;;;;;;5073847;28;20477;-70
2021/10/02 05:12:12;;;;;;;5.37;4.83;;;;;;;;;;5079789;28;20836;-68
2021/10/02 05:14:39;;;;;;;8.60;5.83;;;;;;;;;;5083938;28;20469;-68
2021/10/02 05:17:10;;;;;;;6.90;5.27;;;;;;;;;;5081893;28;20457;-68
2021/10/02 05:19:38;;;;;;;6.73;5.17;;;;;;;;;;5089408;28;20540;-69
2021/10/02 05:22:05;;;;;;;5.40;4.37;;;;;;;;;;5078750;28;20446;-68
2021/10/02 05:24:36;;;;;;;8.30;5.27;;;;;;;;;;5073251;28;20658;-68
2021/10/02 05:27:06;;;;;;;4.70;3.93;;;;;;;;;;5075083;28;20932;-68
2021/10/02 05:29:33;;;;;;;7.17;5.23;;;;;;;;;;5073179;28;20457;-69
2021/10/02 05:32:00;;;;;;;4.60;4.17;;;;;;;;;;5073742;28;20456;-68
2021/10/02 05:34:27;;;;;;;7.33;5.07;;;;;;;;;;5073049;28;20445;-68
2021/10/02 05:36:54;;;;;;;6.23;5.00;;;;;;;;;;5086260;28;20536;-69
2021/10/02 05:39:22;;;;;;;8.97;6.33;;;;;;;;;;5079720;28;20491;-68
2021/10/02 05:41:50;;;;;;;7.60;5.30;;;;;;;;;;5076260;28;20937;-68
2021/10/02 05:44:18;;;;;;;6.13;5.00;;;;;;;;;;5082007;28;20539;-68
2021/10/02 05:46:45;;;;;;;6.27;5.30;;;;;;;;;;5092144;28;20916;-73
2021/10/02 05:49:12;;;;;;;6.90;4.43;;;;;;;;;;5093411;28;20535;-69
2021/10/02 05:51:39;;;;;;;4.67;4.00;;;;;;;;;;5082206;28;20445;-69
2021/10/02 05:54:08;;;;;;;6.07;4.80;;;;;;;;;;5073302;28;20532;-70
2021/10/02 05:56:35;;;;;;;6.70;4.40;;;;;;;;;;5081945;28;20492;-70
2021/10/02 05:59:04;;;;;;;8.10;5.63;;;;;;;;;;5073815;28;20460;-70
2021/10/02 06:01:31;;;;;;;4.87;4.37;;;;;;;;;;5072673;28;20444;-70
2021/10/02 06:03:58;;;;;;;6.27;4.90;;;;;;;;;;5072929;28;20456;-70
2021/10/02 06:06:25;;;;;;;5.30;4.20;;;;;;;;;;5072515;28;20450;-70
2021/10/02 06:08:53;;;;;;;8.97;5.60;;;;;;;;;;5077123;28;20461;-69
2021/10/02 06:11:20;;;;;;;8.57;5.30;;;;;;;;;;5081917;28;20471;-70
2021/10/02 06:13:48;;;;;;;6.43;4.90;;;;;;;;;;5092633;28;20448;-70
2021/10/02 06:16:17;;;;;;;5.97;5.23;;;;;;;;;;5084210;28;20446;-70
2021/10/02 06:18:44;;;;;;;5.73;4.30;;;;;;;;;;5080204;28;20949;-70
2021/10/02 06:21:14;;;;;;;6.20;5.27;;;;;;;;;;5087927;28;20441;-74
2021/10/02 06:23:41;;;;;;;8.50;5.67;;;;;;;;;;5084275;28;20510;-70
2021/10/02 06:26:08;;;;;;;6.73;5.13;;;;;;;;;;5081499;28;20864;-70
2021/10/02 06:28:36;;;;;;;7.57;5.17;;;;;;;;;;5072954;28;20818;-70
2021/10/02 06:31:03;;;;;;;6.77;4.57;;;;;;;;;;5082987;28;20453;-69
2021/10/02 06:33:32;;;;;;;6.40;4.57;;;;;;;;;;5072195;28;20453;-68
2021/10/02 06:35:59;;;;;;;5.93;5.00;;;;;;;;;;5073709;28;20823;-68
2021/10/02 06:38:26;;;;;;;7.97;5.97;;;;;;;;;;5086226;28;20454;-67
2021/10/02 06:40:53;;;;;;;7.30;6.27;;;;;;;;;;5073155;28;20488;-66
2021/10/02 06:43:21;;;;;;;8.40;5.20;;;;;;;;;;5071450;28;20456;-67
2021/10/02 06:45:48;;;;;;;6.30;4.73;;;;;;;;;;5072125;28;20449;-67
2021/10/02 06:48:15;;;;;;;6.73;5.20;;;;;;;;;;5085853;28;20480;-67
2021/10/02 06:50:43;;;;;;;7.43;4.87;;;;;;;;;;5092149;28;20963;-67
2021/10/02 06:53:11;;;;;;;8.57;4.90;;;;;;;;;;5088344;28;20461;-67
2021/10/02 06:55:38;;;;;;;18.93;14.53;;;;;;;;;;5086627;28;20452;-67
2021/10/02 06:58:07;;;;;;;6.70;5.50;;;;;;;;;;5090268;28;20480;-68
2021/10/02 07:00:34;;;;;;;14.33;8.40;;;;;;;;;;5085493;28;20460;-68
2021/10/02 07:03:01;;;;;;;6.80;5.00;;;;;;;;;;5092150;28;20907;-67
2021/10/02 07:05:28;;;;;;;6.27;5.13;;;;;;;;;;5084040;28;20448;-67
2021/10/02 07:07:57;;;;;;;12.50;6.13;;;;;;;;;;5077888;28;20486;-67
2021/10/02 07:10:25;;;;;;;5.47;4.70;;;;;;;;;;5089443;28;20563;-68
2021/10/02 07:12:52;;;;;;;8.37;5.80;;;;;;;;;;5086897;28;21253;-68
2021/10/02 07:15:20;;;;;;;5.70;4.97;;;;;;;;;;5085766;28;20919;-68
2021/10/02 07:17:48;;;;;;;6.23;4.90;;;;;;;;;;5077029;28;20492;-69
2021/10/02 07:20:15;;;;;;;7.30;6.20;;;;;;;;;;5079891;28;20493;-68
2021/10/02 07:22:43;;;;;;;5.90;5.00;;;;;;;;;;5071220;28;20866;-68
2021/10/02 07:25:12;;;;;;;10.47;6.03;;;;;;;;;;5081865;28;20455;-68
2021/10/02 07:27:40;;;;;;;6.73;5.23;;;;;;;;;;5091271;28;21001;-68
2021/10/02 07:30:08;;;;;;;8.70;4.70;;;;;;;;;;5082611;28;20540;-69
2021/10/02 07:32:36;;;;;;;6.73;5.40;;;;;;;;;;5091320;28;20524;-68
2021/10/02 07:35:03;;;;;;;5.70;4.53;;;;;;;;;;5093309;28;20472;-67
2021/10/02 07:37:30;;;;;;;7.60;5.63;;;;;;;;;;5090989;28;20531;-69
2021/10/02 07:39:57;;;;;;;5.77;5.17;;;;;;;;;;5075461;28;20464;-68
2021/10/02 07:42:26;;;;;;;5.67;4.60;;;;;;;;;;5070960;28;20536;-70
2021/10/02 07:44:56;;;;;;;6.23;5.00;;;;;;;;;;5070624;28;20473;-68
2021/10/02 07:47:24;;;;;;;6.10;4.73;;;;;;;;;;5089465;28;20480;-64
2021/10/02 07:49:51;;;;;;;7.20;4.90;;;;;;;;;;5091009;28;20455;-68
2021/10/02 07:52:21;;;;;;;9.27;6.30;;;;;;;;;;5084435;28;20452;-67
2021/10/02 07:54:49;;;;;;;6.83;4.37;;;;;;;;;;5078339;28;20453;-67
2021/10/02 07:57:17;;;;;;;6.13;4.80;;;;;;;;;;5080609;28;20492;-67
2021/10/02 07:59:46;;;;;;;6.57;4.10;;;;;;;;;;5085001;28;20449;-64
2021/10/02 08:02:17;;;;;;;5.53;4.90;;;;;;;;;;5079299;28;20453;-69
2021/10/02 08:04:45;;;;;;;9.20;4.33;;;;;;;;;;5074358;28;20529;-79
2021/10/02 08:07:14;;;;;;;17.93;4.80;;;;;;;;;;5081999;28;20799;-74
2021/10/02 08:09:41;;;;;;;5.37;4.40;;;;;;;;;;5081722;28;20468;-67
2021/10/02 08:12:09;;;;;;;7.63;4.50;;;;;;;;;;5076528;28;20446;-66
2021/10/02 08:14:37;;;;;;;4.10;3.53;;;;;;;;;;5070944;28;20966;-66
2021/10/02 08:17:06;;;;;;;5.40;3.37;;;;;;;;;;5089045;28;20437;-66
2021/10/02 08:19:35;;;;;;;6.13;3.20;;;;;;;;;;5090208;28;20450;-69
2021/10/02 08:22:03;;;;;;;3.60;3.20;;;;;;;;;;5090672;28;20535;-66
2021/10/02 08:24:32;;;;;;;3.40;3.00;;;;;;;;;;5089996;28;20452;-66
2021/10/02 08:26:59;;;;;;;4.23;3.10;;;;;;;;;;5090616;28;20456;-66
2021/10/02 08:29:26;;;;;;;4.07;2.97;;;;;;;;;;5085065;28;20508;-66
2021/10/02 08:31:54;;;;;;;5.07;3.67;;;;;;;;;;5087080;28;20804;-65
2021/10/02 08:34:23;;;;;;;7.90;4.43;;;;;;;;;;5085731;28;20437;-65
2021/10/02 08:36:50;;;;;;;4.53;3.17;;;;;;;;;;5087600;28;20441;-66
2021/10/02 08:39:17;;;;;;;9.00;3.37;;;;;;;;;;5089984;28;20525;-65
2021/10/02 08:41:45;;;;;;;3.20;2.50;;;;;;;;;;5090263;28;20449;-65
2021/10/02 08:44:17;;;;;;;2.87;2.40;;;;;;;;;;5090683;28;20444;-65
2021/10/02 08:46:45;;;;;;;2.83;2.30;;;;;;;;;;5089944;28;20444;-66
2021/10/02 08:49:38;;;;;;;2.90;2.00;;;13.40;99.90;;;;;;5090136;28;20494;-66
2021/10/02 08:52:06;;;;;;;4.13;2.60;;;17.40;1.00;;;;;;5082680;28;20456;-66
2021/10/02 08:54:37;;;;;;;2.40;2.20;;;17.60;1.00;;;;;;5082301;28;20443;-66
2021/10/02 08:57:08;;;;;;;5.93;3.80;;;17.60;1.00;;;;;;5080239;28;20441;-66
2021/10/02 08:59:37;;;;;;;4.80;2.90;;;17.70;1.00;;;;;;5071796;28;20795;-66
2021/10/02 09:02:04;;;;;;;3.20;2.40;;;17.80;1.00;;;;;;5081935;28;20456;-66
2021/10/02 09:04:31;;;;;;;2.73;2.30;;;17.80;99.90;;;;;;5078836;28;20446;-70
2021/10/02 09:07:00;;;;;;;3.20;2.30;;;17.90;99.90;;;;;;5087436;28;20457;-66
2021/10/02 09:09:28;;;;;;;1.93;1.77;;;18.00;99.90;;;;;;5070338;28;20501;-65
2021/10/02 09:11:55;;;;;;;2.07;1.80;;;18.10;99.90;;;;;;5077762;28;20473;-66
2021/10/02 09:14:22;;;;;;;6.13;2.47;;;18.20;99.90;;;;;;5082873;28;20453;-66
2021/10/02 09:16:48;;;;;;;2.47;2.03;;;18.30;99.90;;;;;;5084139;28;20440;-67
2021/10/02 09:19:15;;;;;;;2.23;1.93;;;18.30;99.90;;;;;;5088923;28;20555;-67
2021/10/02 09:21:44;;;;;;;4.10;2.10;;;18.30;99.90;;;;;;5076656;28;20817;-66
2021/10/02 09:24:23;;;;;;;2.20;2.00;;;18.40;99.90;;;;;;5070953;28;20446;-67
2021/10/02 09:26:50;;;;;;;3.00;2.30;;;18.50;99.90;;;;;;5069394;28;20880;-67
2021/10/02 09:29:18;;;;;;;3.17;1.77;;;18.60;99.90;;;;;;5073226;28;20565;-66
2021/10/02 09:31:45;;;;;;;3.33;2.10;;;18.60;99.90;;;;;;5074027;28;20441;-66
2021/10/02 09:34:23;;;;;;;1.80;1.67;;;18.60;99.90;;;;;;5078438;28;20444;-67
2021/10/02 09:36:50;;;;;;;1.90;1.70;;;18.70;99.90;;;;;;5079696;28;20837;-67
2021/10/02 09:39:17;;;;;;;3.53;1.90;;;18.90;99.90;;;;;;5078162;28;20547;-69
2021/10/02 09:41:52;;;;;;;3.67;2.43;;;19.00;99.90;;;;;;5069625;28;21013;-67
2021/10/02 09:44:23;;;;;;;3.50;2.43;;;19.00;99.90;;;;;;5070071;28;20433;-67
2021/10/02 09:46:51;;;;;;;5.03;2.30;;;19.00;99.90;;;;;;5082981;28;20484;-67
2021/10/02 09:49:17;;;;;;;11.50;8.10;;;19.10;99.90;;;;;;5079900;28;20481;-67
2021/10/02 09:51:46;;;;;;;5.43;4.20;;;19.20;99.90;;;;;;5080477;28;20453;-66
2021/10/02 09:54:38;;;;;;;4.60;4.10;;;19.30;99.90;;;;;;5092956;28;20455;-65
2021/10/02 09:57:14;;;;;;;4.30;2.90;;;19.40;99.90;;;;;;5085237;28;20461;-66
2021/10/02 09:59:43;;;;;;;6.90;2.43;;;19.40;99.90;;;;;;5083654;28;20464;-66
2021/10/02 10:02:14;;;;;;;3.60;3.20;;;19.60;99.90;;;;;;5085862;28;20449;-66
2021/10/02 10:04:49;;;;;;;4.20;2.20;;;19.60;99.90;;;;;;5075740;28;20535;-66
2021/10/02 10:07:16;;;;;;;4.27;2.70;;;19.70;99.90;;;;;;5088038;28;20793;-66
2021/10/02 10:09:43;;;;;;;3.40;2.30;;;19.70;99.90;;;;;;5089771;28;20894;-66
2021/10/02 10:12:13;;;;;;;4.03;2.80;;;;;;;;;;5086364;28;20449;-65
2021/10/02 10:14:41;;;;;;;3.60;2.13;;;;;;;;;;5070288;28;20520;-65
2021/10/02 10:17:16;;;;;;;2.43;2.17;;;;;;;;;;5080590;28;20455;-65
2021/10/02 10:19:45;;;;;;;3.93;2.13;;;;;;;;;;5076655;28;20453;-66
2021/10/02 10:22:14;;;;;;;3.77;2.90;;;;;;;;;;5084518;28;20896;-66
2021/10/02 10:24:42;;;;;;;3.83;3.53;;;;;;;;;;5089314;28;20502;-66
2021/10/02 10:27:09;;;;;;;4.17;2.47;;;;;;;;;;5083955;28;20490;-65
2021/10/02 10:29:38;;;;;;;3.20;2.67;;;;;;;;;;5069021;28;20487;-65
2021/10/02 10:32:08;;;;;;;6.20;3.30;;;;;;;;;;5081991;28;20894;-65
2021/10/02 10:34:38;;;;;;;3.83;3.03;;;;;;;;;;5088764;28;20440;-66
2021/10/02 10:37:06;;;;;;;3.00;2.40;;;;;;;;;;5078513;28;20441;-65
2021/10/02 10:39:34;;;;;;;3.47;2.40;;;;;;;;;;5088872;28;21086;-65
2021/10/02 10:42:02;;;;;;;3.20;2.60;;;;;;;;;;5070665;28;20896;-65
2021/10/02 10:44:30;;;;;;;2.77;2.50;;;;;;;;;;5070419;28;20452;-66
2021/10/02 10:46:57;;;;;;;5.03;3.43;;;;;;;;;;5074795;28;20453;-66
2021/10/02 10:49:26;;;;;;;3.13;2.73;;;;;;;;;;5075218;28;20488;-66
2021/10/02 10:51:58;;;;;;;4.50;3.47;;;;;;;;;;5075610;28;20456;-65
2021/10/02 10:54:25;;;;;;;4.33;3.00;;;;;;;;;;5074681;28;20445;-65
2021/10/02 10:56:54;;;;;;;6.93;4.17;;;;;;;;;;5083751;28;21251;-66
2021/10/02 10:59:22;;;;;;;4.17;2.80;;;;;;;;;;5084516;28;20832;-64
2021/10/02 11:01:50;;;;;;;3.23;2.67;;;;;;;;;;5078552;28;20457;-64
2021/10/02 11:04:35;;;;;;;6.30;2.60;;;;;;;;;;5079925;28;20507;-66
2021/10/02 11:07:03;;;;;;;6.23;3.33;;;;;;;;;;5083689;28;20513;-66
2021/10/02 11:09:37;;;;;;;6.90;3.07;;;;;;;;;;5068328;28;20587;-65
2021/10/02 11:12:05;;;;;;;3.60;3.00;;;;;;;;;;5070064;28;20449;-66
2021/10/02 11:14:51;;;;;;;3.07;2.77;;;;;;;;;;5069066;28;21186;-65
2021/10/02 11:17:35;;;;;;;6.40;5.03;;;;;;;;;;5070391;28;20989;-65
2021/10/02 11:20:23;;;;;;;5.10;2.93;;;;;;;;;;5076777;28;20528;-66
2021/10/02 11:23:13;;;;;;;5.03;3.90;;;;;;;;;;5071441;28;20546;-66
2021/10/02 11:25:42;;;;;;;7.23;3.10;;;;;;;;;;5083493;28;20453;-66
2021/10/02 11:28:28;;;;;;;4.37;2.50;;;;;;;;;;5071946;28;20534;-66
2021/10/02 11:30:56;;;;;;;3.00;2.70;;;;;;;;;;5079151;28;20448;-66
2021/10/02 11:33:32;;;;;;;5.10;2.10;;;;;;;;;;5073189;28;20544;-66
2021/10/02 11:36:01;;;;;;;4.17;2.73;;;;;;;;;;5078016;28;20465;-66
2021/10/02 11:38:36;;;;;;;2.47;2.27;;;;;;;;;;5073327;28;20543;-66
2021/10/02 11:41:22;;;;;;;2.90;2.43;;;;;;;;;;5084281;28;20952;-66
2021/10/02 11:43:54;;;;;;;3.53;2.90;;;;;;;;;;5078752;28;20862;-66
2021/10/02 11:46:24;;;;;;;5.80;2.73;;;;;;;;;;5068444;28;20453;-66
2021/10/02 11:48:51;;;;;;;5.63;2.80;;;;;;;;;;5076448;28;20487;-65
2021/10/02 11:51:25;;;;;;;2.87;2.30;;;;;;;;;;5071843;28;20453;-66
2021/10/02 11:53:54;;;;;;;2.70;2.10;;;;;;;;;;5084661;28;20446;-66
2021/10/02 11:56:22;;;;;;;2.83;2.13;;;;;;;;;;5067736;28;20519;-66
2021/10/02 11:58:50;;;;;;;3.70;2.63;;;;;;;;;;5070281;28;20564;-66
2021/10/02 12:01:18;;;;;;;2.70;2.10;;;;;;;;;;5083330;28;20504;-65
2021/10/02 12:03:45;;;;;;;3.13;2.80;;;;;;;;;;5068261;28;20445;-66
2021/10/02 12:06:13;;;;;;;4.40;2.60;;;;;;;;;;5072673;28;20544;-66
2021/10/02 12:08:41;;;;;;;4.00;3.00;;;;;;;;;;5085889;28;21003;-66
2021/10/02 12:11:09;;;;;;;2.77;2.57;;;;;;;;;;5067082;28;20555;-66
2021/10/02 12:13:37;;;;;;;2.33;2.13;;;;;;;;;;5085035;28;20521;-65
2021/10/02 12:16:05;;;;;;;2.30;2.10;;;;;;;;;;5087532;28;20448;-65
2021/10/02 12:18:53;;;;;;;4.93;2.60;;;;;;;;;;5073852;28;20457;-66
2021/10/02 12:21:28;;;;;;;2.40;2.20;;;;;;;;;;5087685;28;20949;-66
2021/10/02 12:23:58;;;;;;;4.43;2.70;;;;;;;;;;5083083;28;20822;-66
2021/10/02 12:26:26;;;;;;;3.03;2.60;;;;;;;;;;5078826;28;20463;-66
2021/10/02 12:28:57;;;;;;;3.63;2.43;;;;;;;;;;5071584;28;20595;-66
2021/10/02 12:31:24;;;;;;;4.27;2.40;;;;;;;;;;5067696;28;20441;-66
2021/10/02 12:33:51;;;;;;;3.73;2.17;;;;;;;;;;5067403;28;20982;-66
2021/10/02 12:36:33;;;;;;;2.60;2.40;;;;;;;;;;5076181;28;20453;-66
2021/10/02 12:39:03;;;;;;;3.17;2.40;;;;;;;;;;5079190;28;20461;-66
2021/10/02 12:41:37;;;;;;;3.80;2.60;;;;;;;;;;5079033;28;20786;-66
2021/10/02 12:44:04;;;;;;;3.50;2.40;;;;;;;;;;5074819;28;20539;-66
2021/10/02 12:46:32;;;;;;;2.40;2.20;;;;;;;;;;5079493;28;20457;-66
2021/10/02 12:48:59;;;;;;;3.20;2.67;;;;;;;;;;5069861;28;20480;-66
2021/10/02 12:51:26;;;;;;;3.43;2.20;;;;;;;;;;5087324;28;20458;-66
2021/10/02 12:53:53;;;;;;;2.70;2.50;;;;;;;;;;5087212;28;20951;-66
2021/10/02 12:56:22;;;;;;;3.70;2.10;;;;;;;;;;5082721;28;20812;-66
2021/10/02 12:58:49;;;;;;;7.67;3.40;;;;;;;;;;5077870;28;20444;-66
2021/10/02 13:01:16;;;;;;;2.40;2.10;;;;;;;;;;5082204;28;20527;-66
2021/10/02 13:03:43;;;;;;;3.10;2.80;;;;;;;;;;5067759;28;20460;-66
2021/10/02 13:06:10;;;;;;;2.60;2.40;;;;;;;;;;5078894;28;20456;-66
2021/10/02 13:08:38;;;;;;;2.60;2.30;;;;;;;;;;5076892;28;20461;-66
2021/10/02 13:11:05;;;;;;;3.00;2.30;;;;;;;;;;5081448;28;20473;-66
2021/10/02 13:13:38;;;;;;;6.13;3.13;;;;;;;;;;5067348;28;20896;-66
2021/10/02 13:16:05;;;;;;;3.10;2.90;;;;;;;;;;5072952;28;20448;-65
2021/10/02 13:18:33;;;;;;;4.77;3.63;;;;;;;;;;5074582;28;20599;-66
2021/10/02 13:21:03;;;;;;;3.13;2.30;;;;;;;;;;5085531;28;20531;-66
2021/10/02 13:23:32;;;;;;;5.73;2.57;;;;;;;;;;5076782;28;20453;-66
2021/10/02 13:26:00;;;;;;;2.90;2.37;;;;;;;;;;5077872;28;20495;-66
2021/10/02 13:28:28;;;;;;;2.50;2.30;;;;;;;;;;5074143;28;20448;-66
2021/10/02 13:30:58;;;;;;;3.33;2.93;;;;;;;;;;5084078;28;20603;-66
2021/10/02 13:33:25;;;;;;;2.80;2.60;;;;;;;;;;5078155;28;20447;-66
2021/10/02 13:35:54;;;;;;;3.37;2.30;;;;;;;;;;5091434;28;20478;-67
2021/10/02 13:38:31;;;;;;;2.90;2.33;;;;;;;;;;5088469;28;20792;-66
2021/10/02 13:41:01;;;;;;;2.77;2.57;;;;;;;;;;5078913;28;20871;-65
2021/10/02 13:43:29;;;;;;;3.00;2.73;;;;;;;;;;5084124;28;21123;-65
2021/10/02 13:45:58;;;;;;;4.60;2.40;;;;;;;;;;5090024;28;20466;-65
2021/10/02 13:48:26;;;;;;;2.10;1.90;;;;;;;;;;5071484;28;20536;-65
2021/10/02 13:50:54;;;;;;;3.37;3.07;;;;;;;;;;5075916;28;20487;-65
2021/10/02 13:53:21;;;;;;;2.83;2.57;;;;;;;;;;5072849;28;20446;-65
2021/10/02 13:55:48;;;;;;;2.90;2.27;;;;;;;;;;5081034;28;20445;-65
2021/10/02 13:58:15;;;;;;;2.40;2.20;;;;;;;;;;5090581;28;20459;-65
2021/10/02 14:00:42;;;;;;;2.90;2.63;;;;;;;;;;5089529;28;20543;-65
2021/10/02 14:03:11;;;;;;;3.67;2.13;;;;;;;;;;5075419;28;20541;-65
2021/10/02 14:05:39;;;;;;;2.70;2.37;;;;;;;;;;5084437;28;20437;-65
2021/10/02 14:08:07;;;;;;;2.80;2.40;;;;;;;;;;5076883;28;20933;-65
2021/10/02 14:10:34;;;;;;;3.00;2.47;;;;;;;;;;5074421;28;20588;-65
2021/10/02 14:13:01;;;;;;;2.53;2.33;;;;;;;;;;5079558;28;20866;-65
2021/10/02 14:15:28;;;;;;;3.73;2.60;;;;;;;;;;5075591;28;20453;-65
2021/10/02 14:17:56;;;;;;;4.80;2.37;;;;;;;;;;5068735;28;20751;-65
2021/10/02 14:20:24;;;;;;;4.47;2.77;;;;;;;;;;5069599;28;20604;-65
2021/10/02 14:22:52;;;;;;;2.50;2.30;;;;;;;;;;5077292;28;20467;-65
2021/10/02 14:25:19;;;;;;;3.87;3.33;;;;;;;;;;5077871;28;20535;-64
2021/10/02 14:27:46;;;;;;;4.33;2.97;;;;;;;;;;5085607;28;20445;-65
2021/10/02 14:30:13;;;;;;;5.13;2.40;;;;;;;;;;5089647;28;20484;-64
2021/10/02 14:32:41;;;;;;;2.17;1.97;;;;;;;;;;5079357;28;20456;-65
2021/10/02 14:35:09;;;;;;;2.90;2.40;;;;;;;;;;5069571;28;20544;-64
2021/10/02 14:37:38;;;;;;;3.10;2.40;;;;;;;;;;5069444;28;20456;-64
2021/10/02 14:40:06;;;;;;;2.93;2.63;;;;;;;;;;5079751;28;20456;-65
2021/10/02 14:42:33;;;;;;;4.07;3.10;;;;;;;;;;5089455;28;20747;-65
2021/10/02 14:45:00;;;;;;;2.90;2.63;;;;;;;;;;5084122;28;20445;-65
2021/10/02 14:47:27;;;;;;;4.00;3.10;;;;;;;;;;5069321;28;21024;-65
2021/10/02 14:49:55;;;;;;;3.60;2.67;;;;;;;;;;5069399;28;20568;-65
2021/10/02 14:52:22;;;;;;;4.17;3.00;;;;;;;;;;5070194;28;21146;-65
2021/10/02 14:54:53;;;;;;;5.60;2.73;;;;;;;;;;5077787;28;20540;-65
2021/10/02 14:57:21;;;;;;;3.33;3.03;;;;;;;;;;5089310;28;21230;-67
2021/10/02 14:59:51;;;;;;;3.10;2.80;;;;;;;;;;5082455;28;20529;-68
2021/10/02 15:02:18;;;;;;;3.20;2.90;;;;;;;;;;5082612;28;20455;-67
2021/10/02 15:04:46;;;;;;;3.53;3.20;;;;;;;;;;5088986;28;20457;-66
2021/10/02 15:07:14;;;;;;;3.00;2.70;;;;;;;;;;5073178;28;20472;-67
2021/10/02 15:09:41;;;;;;;7.30;6.03;;;;;;;;;;5069203;28;20498;-68
2021/10/02 15:12:10;;;;;;;2.90;2.70;;;;;;;;;;5068938;28;20473;-67
2021/10/02 15:14:38;;;;;;;3.40;3.10;;;;;;;;;;5079731;28;20452;-66
2021/10/02 15:17:05;;;;;;;5.17;3.77;;;;;;;;;;5073853;28;20642;-66